ENSO/SRP METAR and TAF weather

Enter ICAO airport designator
Station Type Date Time Source
ENSO METAR 2018/01/19 18:50 UTC NOAA

ENSO 191850Z 16009KT 9999 SCT009 BKN020 01/M00 Q0997


Station Type Date Time Source
ENSO Decoded METAR 2018/01/19 18:50 UTC NOAA

Stord / Soerstokken, Norway (ENSO) 59-48N 005-21E
Jan 19, 2018 - 01:50 PM EST / 2018.01.19 1850 UTC
Wind: from the SSE (160 degrees) at 10 MPH (9 KT):0
Visibility: greater than 7 mile(s):0
Sky conditions: mostly cloudy
Temperature: 33 F (1 C)
Windchill: 24 F (-4 C):1
Dew Point: 32 F (0 C)
Relative Humidity: 93%
Pressure (altimeter): 29.44 in. Hg (0997 hPa)
ob: ENSO 191850Z 16009KT 9999 SCT009 BKN020 01/M00 Q0997
cycle: 19

Station Type Date Time Source
ENSO TAF UTC NOAA

Error!


Example: see airport list